sensor_id;sensor_type;location;lat;lon;timestamp;P1;durP1;ratioP1;P2;durP2;ratioP2
19673;SDS011;9986;50.610;7.230;2022-10-31T00:04:06;10.37;;;5.60;;
19673;SDS011;9986;50.610;7.230;2022-10-31T00:06:45;7.23;;;5.23;;
19673;SDS011;9986;50.610;7.230;2022-10-31T00:09:23;8.53;;;4.20;;
19673;SDS011;9986;50.610;7.230;2022-10-31T00:14:31;11.03;;;5.13;;
19673;SDS011;9986;50.610;7.230;2022-10-31T00:17:10;9.33;;;5.00;;
19673;SDS011;9986;50.610;7.230;2022-10-31T00:22:17;8.33;;;5.03;;
19673;SDS011;9986;50.610;7.230;2022-10-31T00:24:52;9.97;;;5.40;;
19673;SDS011;9986;50.610;7.230;2022-10-31T00:27:29;10.13;;;4.90;;
19673;SDS011;9986;50.610;7.230;2022-10-31T00:32:47;8.20;;;5.00;;
19673;SDS011;9986;50.610;7.230;2022-10-31T00:38:00;12.33;;;5.30;;
19673;SDS011;9986;50.610;7.230;2022-10-31T00:40:38;8.87;;;5.03;;
19673;SDS011;9986;50.610;7.230;2022-10-31T00:45:56;7.90;;;4.70;;
19673;SDS011;9986;50.610;7.230;2022-10-31T00:48:28;7.70;;;4.67;;
19673;SDS011;9986;50.610;7.230;2022-10-31T00:51:05;6.90;;;4.27;;
19673;SDS011;9986;50.610;7.230;2022-10-31T00:53:44;8.20;;;4.93;;
19673;SDS011;9986;50.610;7.230;2022-10-31T00:56:22;8.93;;;5.07;;
19673;SDS011;9986;50.610;7.230;2022-10-31T00:59:00;6.53;;;4.57;;
19673;SDS011;9986;50.610;7.230;2022-10-31T01:01:41;16.20;;;4.60;;
19673;SDS011;9986;50.610;7.230;2022-10-31T01:06:48;8.27;;;5.77;;
19673;SDS011;9986;50.610;7.230;2022-10-31T01:09:28;7.10;;;4.60;;
19673;SDS011;9986;50.610;7.230;2022-10-31T01:14:37;5.33;;;4.83;;
19673;SDS011;9986;50.610;7.230;2022-10-31T01:17:15;9.47;;;4.83;;
19673;SDS011;9986;50.610;7.230;2022-10-31T01:19:53;10.07;;;5.13;;
19673;SDS011;9986;50.610;7.230;2022-10-31T01:22:32;10.03;;;4.53;;
19673;SDS011;9986;50.610;7.230;2022-10-31T01:25:13;8.93;;;4.97;;
19673;SDS011;9986;50.610;7.230;2022-10-31T01:27:51;10.17;;;5.10;;
19673;SDS011;9986;50.610;7.230;2022-10-31T01:30:33;9.53;;;4.93;;
19673;SDS011;9986;50.610;7.230;2022-10-31T01:35:44;8.83;;;4.53;;
19673;SDS011;9986;50.610;7.230;2022-10-31T01:40:54;11.27;;;4.13;;
19673;SDS011;9986;50.610;7.230;2022-10-31T01:43:42;11.80;;;5.50;;
19673;SDS011;9986;50.610;7.230;2022-10-31T01:46:22;7.13;;;4.33;;
19673;SDS011;9986;50.610;7.230;2022-10-31T01:49:01;7.47;;;4.50;;
19673;SDS011;9986;50.610;7.230;2022-10-31T01:54:12;7.57;;;4.90;;
19673;SDS011;9986;50.610;7.230;2022-10-31T01:59:29;7.60;;;4.87;;
19673;SDS011;9986;50.610;7.230;2022-10-31T02:04:45;9.07;;;4.50;;
19673;SDS011;9986;50.610;7.230;2022-10-31T02:07:31;9.20;;;4.70;;
19673;SDS011;9986;50.610;7.230;2022-10-31T02:12:42;7.80;;;5.10;;
19673;SDS011;9986;50.610;7.230;2022-10-31T02:15:21;7.23;;;5.10;;
19673;SDS011;9986;50.610;7.230;2022-10-31T02:20:29;10.77;;;4.60;;
19673;SDS011;9986;50.610;7.230;2022-10-31T02:23:19;13.37;;;5.37;;
19673;SDS011;9986;50.610;7.230;2022-10-31T02:26:18;9.13;;;5.37;;
19673;SDS011;9986;50.610;7.230;2022-10-31T02:29:08;6.87;;;4.63;;
19673;SDS011;9986;50.610;7.230;2022-10-31T02:34:30;9.83;;;4.97;;
19673;SDS011;9986;50.610;7.230;2022-10-31T02:37:09;7.87;;;4.67;;
19673;SDS011;9986;50.610;7.230;2022-10-31T02:44:58;4.93;;;4.20;;
19673;SDS011;9986;50.610;7.230;2022-10-31T02:47:36;6.33;;;4.70;;
19673;SDS011;9986;50.610;7.230;2022-10-31T02:52:49;16.73;;;5.10;;
19673;SDS011;9986;50.610;7.230;2022-10-31T02:58:26;10.00;;;4.63;;
19673;SDS011;9986;50.610;7.230;2022-10-31T03:03:53;11.67;;;4.93;;
19673;SDS011;9986;50.610;7.230;2022-10-31T03:06:45;6.17;;;4.47;;
19673;SDS011;9986;50.610;7.230;2022-10-31T03:09:27;6.33;;;5.70;;
19673;SDS011;9986;50.610;7.230;2022-10-31T03:12:01;7.57;;;5.17;;
19673;SDS011;9986;50.610;7.230;2022-10-31T03:17:11;10.13;;;6.10;;
19673;SDS011;9986;50.610;7.230;2022-10-31T03:19:50;8.80;;;4.83;;
19673;SDS011;9986;50.610;7.230;2022-10-31T03:22:29;14.60;;;5.00;;
19673;SDS011;9986;50.610;7.230;2022-10-31T03:25:09;11.73;;;4.97;;
19673;SDS011;9986;50.610;7.230;2022-10-31T03:27:47;10.57;;;5.13;;
19673;SDS011;9986;50.610;7.230;2022-10-31T03:30:26;15.13;;;6.00;;
19673;SDS011;9986;50.610;7.230;2022-10-31T03:33:06;7.10;;;5.07;;
19673;SDS011;9986;50.610;7.230;2022-10-31T03:38:17;7.27;;;5.33;;
19673;SDS011;9986;50.610;7.230;2022-10-31T03:43:26;9.10;;;5.53;;
19673;SDS011;9986;50.610;7.230;2022-10-31T03:48:36;6.50;;;5.13;;
19673;SDS011;9986;50.610;7.230;2022-10-31T03:51:14;11.43;;;5.73;;
19673;SDS011;9986;50.610;7.230;2022-10-31T03:53:54;8.83;;;5.90;;
19673;SDS011;9986;50.610;7.230;2022-10-31T03:56:33;13.53;;;7.43;;
19673;SDS011;9986;50.610;7.230;2022-10-31T03:59:13;14.27;;;5.93;;
19673;SDS011;9986;50.610;7.230;2022-10-31T04:01:53;9.80;;;6.23;;
19673;SDS011;9986;50.610;7.230;2022-10-31T04:07:08;10.97;;;5.50;;
19673;SDS011;9986;50.610;7.230;2022-10-31T04:09:49;14.90;;;6.13;;
19673;SDS011;9986;50.610;7.230;2022-10-31T04:14:58;11.87;;;6.23;;
19673;SDS011;9986;50.610;7.230;2022-10-31T04:17:39;11.97;;;6.63;;
19673;SDS011;9986;50.610;7.230;2022-10-31T04:20:17;9.53;;;5.73;;
19673;SDS011;9986;50.610;7.230;2022-10-31T04:25:32;8.43;;;5.93;;
19673;SDS011;9986;50.610;7.230;2022-10-31T04:28:10;10.33;;;6.17;;
19673;SDS011;9986;50.610;7.230;2022-10-31T04:30:50;8.10;;;5.70;;
19673;SDS011;9986;50.610;7.230;2022-10-31T04:33:34;10.13;;;5.87;;
19673;SDS011;9986;50.610;7.230;2022-10-31T04:36:12;12.07;;;6.23;;
19673;SDS011;9986;50.610;7.230;2022-10-31T04:38:52;11.23;;;6.07;;
19673;SDS011;9986;50.610;7.230;2022-10-31T04:44:06;10.60;;;6.13;;
19673;SDS011;9986;50.610;7.230;2022-10-31T04:46:44;8.03;;;5.90;;
19673;SDS011;9986;50.610;7.230;2022-10-31T04:49:22;10.80;;;6.10;;
19673;SDS011;9986;50.610;7.230;2022-10-31T04:52:01;10.03;;;5.70;;
19673;SDS011;9986;50.610;7.230;2022-10-31T04:54:41;11.37;;;6.17;;
19673;SDS011;9986;50.610;7.230;2022-10-31T04:59:55;10.07;;;5.63;;
19673;SDS011;9986;50.610;7.230;2022-10-31T05:05:05;7.97;;;4.60;;
19673;SDS011;9986;50.610;7.230;2022-10-31T05:10:15;11.13;;;5.30;;
19673;SDS011;9986;50.610;7.230;2022-10-31T05:12:54;10.63;;;6.00;;
19673;SDS011;9986;50.610;7.230;2022-10-31T05:15:32;9.03;;;5.30;;
19673;SDS011;9986;50.610;7.230;2022-10-31T05:18:13;11.80;;;6.20;;
19673;SDS011;9986;50.610;7.230;2022-10-31T05:20:51;7.60;;;5.40;;
19673;SDS011;9986;50.610;7.230;2022-10-31T05:26:04;13.43;;;6.23;;
19673;SDS011;9986;50.610;7.230;2022-10-31T05:28:42;13.97;;;5.97;;
19673;SDS011;9986;50.610;7.230;2022-10-31T05:33:58;10.33;;;5.93;;
19673;SDS011;9986;50.610;7.230;2022-10-31T05:36:36;8.37;;;6.10;;
19673;SDS011;9986;50.610;7.230;2022-10-31T05:39:14;9.00;;;5.70;;
19673;SDS011;9986;50.610;7.230;2022-10-31T05:44:23;8.40;;;6.00;;
19673;SDS011;9986;50.610;7.230;2022-10-31T05:46:54;6.57;;;4.60;;
19673;SDS011;9986;50.610;7.230;2022-10-31T05:52:11;10.20;;;5.10;;
19673;SDS011;9986;50.610;7.230;2022-10-31T05:54:48;8.53;;;5.40;;
19673;SDS011;9986;50.610;7.230;2022-10-31T05:57:29;12.43;;;5.53;;
19673;SDS011;9986;50.610;7.230;2022-10-31T06:02:58;11.27;;;5.77;;
19673;SDS011;9986;50.610;7.230;2022-10-31T06:05:37;10.27;;;5.90;;
19673;SDS011;9986;50.610;7.230;2022-10-31T06:08:14;8.00;;;5.37;;
19673;SDS011;9986;50.610;7.230;2022-10-31T06:10:58;12.87;;;5.67;;
19673;SDS011;9986;50.610;7.230;2022-10-31T06:13:36;7.33;;;5.90;;
19673;SDS011;9986;50.610;7.230;2022-10-31T06:21:29;16.17;;;7.00;;
19673;SDS011;9986;50.610;7.230;2022-10-31T06:24:09;9.80;;;5.97;;
19673;SDS011;9986;50.610;7.230;2022-10-31T06:26:49;9.83;;;5.73;;
19673;SDS011;9986;50.610;7.230;2022-10-31T06:29:27;11.47;;;6.40;;
19673;SDS011;9986;50.610;7.230;2022-10-31T06:32:05;9.67;;;6.37;;
19673;SDS011;9986;50.610;7.230;2022-10-31T06:34:46;12.63;;;6.60;;
19673;SDS011;9986;50.610;7.230;2022-10-31T06:39:53;18.07;;;7.23;;
19673;SDS011;9986;50.610;7.230;2022-10-31T06:42:31;18.37;;;8.20;;
19673;SDS011;9986;50.610;7.230;2022-10-31T06:53:11;17.33;;;8.60;;
19673;SDS011;9986;50.610;7.230;2022-10-31T06:55:49;19.20;;;9.17;;
19673;SDS011;9986;50.610;7.230;2022-10-31T07:00:59;26.33;;;10.03;;
19673;SDS011;9986;50.610;7.230;2022-10-31T07:03:37;22.20;;;9.83;;
19673;SDS011;9986;50.610;7.230;2022-10-31T07:06:14;31.70;;;10.43;;
19673;SDS011;9986;50.610;7.230;2022-10-31T07:08:52;24.77;;;10.67;;
19673;SDS011;9986;50.610;7.230;2022-10-31T07:11:30;20.57;;;10.30;;
19673;SDS011;9986;50.610;7.230;2022-10-31T07:19:24;22.60;;;11.87;;
19673;SDS011;9986;50.610;7.230;2022-10-31T07:22:02;21.53;;;10.73;;
19673;SDS011;9986;50.610;7.230;2022-10-31T07:24:40;19.20;;;10.70;;
19673;SDS011;9986;50.610;7.230;2022-10-31T07:27:18;17.77;;;10.03;;
19673;SDS011;9986;50.610;7.230;2022-10-31T07:30:02;22.13;;;9.93;;
19673;SDS011;9986;50.610;7.230;2022-10-31T07:32:42;22.93;;;11.10;;
19673;SDS011;9986;50.610;7.230;2022-10-31T07:35:20;21.63;;;11.20;;
19673;SDS011;9986;50.610;7.230;2022-10-31T07:40:49;45.50;;;13.10;;
19673;SDS011;9986;50.610;7.230;2022-10-31T07:43:26;23.03;;;11.70;;
19673;SDS011;9986;50.610;7.230;2022-10-31T07:46:04;23.37;;;11.63;;
19673;SDS011;9986;50.610;7.230;2022-10-31T07:48:42;25.47;;;11.73;;
19673;SDS011;9986;50.610;7.230;2022-10-31T07:51:19;24.13;;;11.40;;
19673;SDS011;9986;50.610;7.230;2022-10-31T07:53:57;28.57;;;12.93;;
19673;SDS011;9986;50.610;7.230;2022-10-31T08:01:54;26.23;;;12.87;;
19673;SDS011;9986;50.610;7.230;2022-10-31T08:04:32;23.77;;;12.13;;
19673;SDS011;9986;50.610;7.230;2022-10-31T08:09:48;24.47;;;12.10;;
19673;SDS011;9986;50.610;7.230;2022-10-31T08:15:10;27.00;;;13.60;;
19673;SDS011;9986;50.610;7.230;2022-10-31T08:25:46;31.53;;;15.80;;
19673;SDS011;9986;50.610;7.230;2022-10-31T08:28:24;30.47;;;14.53;;
19673;SDS011;9986;50.610;7.230;2022-10-31T08:33:34;32.10;;;16.83;;
19673;SDS011;9986;50.610;7.230;2022-10-31T08:36:11;30.27;;;15.83;;
19673;SDS011;9986;50.610;7.230;2022-10-31T08:38:49;36.60;;;17.87;;
19673;SDS011;9986;50.610;7.230;2022-10-31T08:41:27;31.40;;;16.40;;
19673;SDS011;9986;50.610;7.230;2022-10-31T08:44:05;27.97;;;16.33;;
19673;SDS011;9986;50.610;7.230;2022-10-31T08:46:44;30.37;;;15.80;;
19673;SDS011;9986;50.610;7.230;2022-10-31T08:51:58;35.13;;;16.63;;
19673;SDS011;9986;50.610;7.230;2022-10-31T08:54:29;28.50;;;16.37;;
19673;SDS011;9986;50.610;7.230;2022-10-31T08:57:06;32.07;;;16.87;;
19673;SDS011;9986;50.610;7.230;2022-10-31T08:59:44;30.97;;;16.50;;
19673;SDS011;9986;50.610;7.230;2022-10-31T09:02:25;29.73;;;15.03;;
19673;SDS011;9986;50.610;7.230;2022-10-31T09:05:03;28.30;;;15.27;;
19673;SDS011;9986;50.610;7.230;2022-10-31T09:10:19;35.43;;;15.93;;
19673;SDS011;9986;50.610;7.230;2022-10-31T09:12:58;27.57;;;13.90;;
19673;SDS011;9986;50.610;7.230;2022-10-31T09:15:38;24.10;;;13.50;;
19673;SDS011;9986;50.610;7.230;2022-10-31T09:20:50;27.17;;;14.93;;
19673;SDS011;9986;50.610;7.230;2022-10-31T09:23:31;31.97;;;15.43;;
19673;SDS011;9986;50.610;7.230;2022-10-31T09:28:38;28.37;;;14.20;;
19673;SDS011;9986;50.610;7.230;2022-10-31T09:31:22;25.93;;;13.63;;
19673;SDS011;9986;50.610;7.230;2022-10-31T09:34:06;22.03;;;13.83;;
19673;SDS011;9986;50.610;7.230;2022-10-31T09:36:44;23.63;;;12.20;;
19673;SDS011;9986;50.610;7.230;2022-10-31T09:39:21;25.03;;;12.57;;
19673;SDS011;9986;50.610;7.230;2022-10-31T09:42:22;20.10;;;13.43;;
19673;SDS011;9986;50.610;7.230;2022-10-31T09:47:51;23.60;;;11.07;;
19673;SDS011;9986;50.610;7.230;2022-10-31T09:50:36;18.53;;;10.00;;
19673;SDS011;9986;50.610;7.230;2022-10-31T09:53:20;14.57;;;9.23;;
19673;SDS011;9986;50.610;7.230;2022-10-31T09:55:59;15.00;;;8.57;;
19673;SDS011;9986;50.610;7.230;2022-10-31T09:58:39;14.00;;;8.40;;
19673;SDS011;9986;50.610;7.230;2022-10-31T10:03:51;11.87;;;8.20;;
19673;SDS011;9986;50.610;7.230;2022-10-31T10:11:58;10.80;;;6.90;;
19673;SDS011;9986;50.610;7.230;2022-10-31T10:17:24;11.00;;;6.90;;
19673;SDS011;9986;50.610;7.230;2022-10-31T10:20:11;11.47;;;7.37;;
19673;SDS011;9986;50.610;7.230;2022-10-31T10:22:54;13.43;;;7.30;;
19673;SDS011;9986;50.610;7.230;2022-10-31T10:25:34;8.33;;;6.17;;
19673;SDS011;9986;50.610;7.230;2022-10-31T10:28:17;12.57;;;7.80;;
19673;SDS011;9986;50.610;7.230;2022-10-31T10:33:29;9.83;;;6.43;;
19673;SDS011;9986;50.610;7.230;2022-10-31T10:38:48;9.07;;;6.03;;
19673;SDS011;9986;50.610;7.230;2022-10-31T10:41:31;13.07;;;6.53;;
19673;SDS011;9986;50.610;7.230;2022-10-31T10:46:40;12.47;;;6.93;;
19673;SDS011;9986;50.610;7.230;2022-10-31T10:49:21;9.20;;;5.93;;
19673;SDS011;9986;50.610;7.230;2022-10-31T10:52:01;8.60;;;6.03;;
19673;SDS011;9986;50.610;7.230;2022-10-31T10:54:45;11.13;;;6.00;;
19673;SDS011;9986;50.610;7.230;2022-10-31T10:57:30;12.27;;;5.93;;
19673;SDS011;9986;50.610;7.230;2022-10-31T11:02:45;10.33;;;5.40;;
19673;SDS011;9986;50.610;7.230;2022-10-31T11:05:24;10.20;;;6.10;;
19673;SDS011;9986;50.610;7.230;2022-10-31T11:08:04;8.13;;;5.53;;
19673;SDS011;9986;50.610;7.230;2022-10-31T11:10:42;8.03;;;5.30;;
19673;SDS011;9986;50.610;7.230;2022-10-31T11:13:22;7.50;;;5.40;;
19673;SDS011;9986;50.610;7.230;2022-10-31T11:16:02;9.80;;;5.63;;
19673;SDS011;9986;50.610;7.230;2022-10-31T11:18:41;7.03;;;5.53;;
19673;SDS011;9986;50.610;7.230;2022-10-31T11:24:02;9.43;;;5.17;;
19673;SDS011;9986;50.610;7.230;2022-10-31T11:26:41;8.77;;;5.30;;
19673;SDS011;9986;50.610;7.230;2022-10-31T11:32:04;9.13;;;5.83;;
19673;SDS011;9986;50.610;7.230;2022-10-31T11:37:15;7.70;;;5.03;;
19673;SDS011;9986;50.610;7.230;2022-10-31T11:39:54;8.60;;;5.40;;
19673;SDS011;9986;50.610;7.230;2022-10-31T11:45:15;10.00;;;4.40;;
19673;SDS011;9986;50.610;7.230;2022-10-31T11:50:28;6.63;;;4.70;;
19673;SDS011;9986;50.610;7.230;2022-10-31T11:55:39;7.37;;;4.10;;
19673;SDS011;9986;50.610;7.230;2022-10-31T11:58:23;7.33;;;4.37;;
19673;SDS011;9986;50.610;7.230;2022-10-31T12:01:20;10.57;;;5.20;;
19673;SDS011;9986;50.610;7.230;2022-10-31T12:04:06;8.10;;;4.57;;
19673;SDS011;9986;50.610;7.230;2022-10-31T12:06:44;7.47;;;4.50;;
19673;SDS011;9986;50.610;7.230;2022-10-31T12:15:20;10.50;;;4.70;;
19673;SDS011;9986;50.610;7.230;2022-10-31T12:21:14;7.80;;;4.47;;
19673;SDS011;9986;50.610;7.230;2022-10-31T12:24:02;7.37;;;4.57;;
19673;SDS011;9986;50.610;7.230;2022-10-31T12:29:17;11.53;;;4.07;;
19673;SDS011;9986;50.610;7.230;2022-10-31T12:38:14;3.80;;;3.17;;
19673;SDS011;9986;50.610;7.230;2022-10-31T12:41:07;10.03;;;4.00;;
19673;SDS011;9986;50.610;7.230;2022-10-31T12:46:43;9.07;;;4.53;;
19673;SDS011;9986;50.610;7.230;2022-10-31T12:49:33;11.33;;;3.70;;
19673;SDS011;9986;50.610;7.230;2022-10-31T12:52:22;7.27;;;4.53;;
19673;SDS011;9986;50.610;7.230;2022-10-31T12:55:11;5.63;;;4.33;;
19673;SDS011;9986;50.610;7.230;2022-10-31T13:00:26;6.37;;;4.60;;
19673;SDS011;9986;50.610;7.230;2022-10-31T13:03:09;8.07;;;4.30;;
19673;SDS011;9986;50.610;7.230;2022-10-31T13:05:46;8.10;;;4.20;;
19673;SDS011;9986;50.610;7.230;2022-10-31T13:08:35;10.93;;;4.00;;
19673;SDS011;9986;50.610;7.230;2022-10-31T13:11:16;9.57;;;4.33;;
19673;SDS011;9986;50.610;7.230;2022-10-31T13:16:34;8.10;;;4.50;;
19673;SDS011;9986;50.610;7.230;2022-10-31T13:19:13;7.90;;;4.83;;
19673;SDS011;9986;50.610;7.230;2022-10-31T13:21:53;7.17;;;4.07;;
19673;SDS011;9986;50.610;7.230;2022-10-31T13:29:49;5.07;;;4.20;;
19673;SDS011;9986;50.610;7.230;2022-10-31T13:32:30;10.10;;;4.13;;
19673;SDS011;9986;50.610;7.230;2022-10-31T13:37:48;6.03;;;4.50;;
19673;SDS011;9986;50.610;7.230;2022-10-31T13:43:07;12.90;;;4.43;;
19673;SDS011;9986;50.610;7.230;2022-10-31T13:48:36;8.00;;;4.13;;
19673;SDS011;9986;50.610;7.230;2022-10-31T13:51:23;7.73;;;3.90;;
19673;SDS011;9986;50.610;7.230;2022-10-31T13:54:01;7.57;;;4.07;;
19673;SDS011;9986;50.610;7.230;2022-10-31T13:59:20;5.30;;;3.83;;
19673;SDS011;9986;50.610;7.230;2022-10-31T14:02:00;7.00;;;4.17;;
19673;SDS011;9986;50.610;7.230;2022-10-31T14:04:44;7.57;;;3.63;;
19673;SDS011;9986;50.610;7.230;2022-10-31T14:10:19;8.97;;;4.47;;
19673;SDS011;9986;50.610;7.230;2022-10-31T14:13:03;8.93;;;4.13;;
19673;SDS011;9986;50.610;7.230;2022-10-31T14:15:53;9.37;;;4.77;;
19673;SDS011;9986;50.610;7.230;2022-10-31T14:18:35;7.50;;;4.80;;
19673;SDS011;9986;50.610;7.230;2022-10-31T14:21:16;5.40;;;4.07;;
19673;SDS011;9986;50.610;7.230;2022-10-31T14:24:12;7.50;;;3.97;;
19673;SDS011;9986;50.610;7.230;2022-10-31T14:26:53;4.53;;;3.80;;
19673;SDS011;9986;50.610;7.230;2022-10-31T14:29:31;5.00;;;4.10;;
19673;SDS011;9986;50.610;7.230;2022-10-31T14:32:19;7.33;;;4.27;;
19673;SDS011;9986;50.610;7.230;2022-10-31T14:34:59;7.37;;;4.27;;
19673;SDS011;9986;50.610;7.230;2022-10-31T14:37:44;7.23;;;4.10;;
19673;SDS011;9986;50.610;7.230;2022-10-31T14:46:19;9.17;;;4.73;;
19673;SDS011;9986;50.610;7.230;2022-10-31T14:51:54;11.73;;;4.10;;
19673;SDS011;9986;50.610;7.230;2022-10-31T14:54:32;12.63;;;4.20;;
19673;SDS011;9986;50.610;7.230;2022-10-31T14:57:15;9.33;;;4.53;;
19673;SDS011;9986;50.610;7.230;2022-10-31T15:02:26;10.90;;;4.57;;
19673;SDS011;9986;50.610;7.230;2022-10-31T15:07:47;9.37;;;4.63;;
19673;SDS011;9986;50.610;7.230;2022-10-31T15:10:25;7.27;;;4.60;;
19673;SDS011;9986;50.610;7.230;2022-10-31T15:13:09;9.80;;;4.27;;
19673;SDS011;9986;50.610;7.230;2022-10-31T15:15:47;12.00;;;4.50;;
19673;SDS011;9986;50.610;7.230;2022-10-31T15:18:26;8.30;;;4.17;;
19673;SDS011;9986;50.610;7.230;2022-10-31T15:21:11;5.27;;;4.17;;
19673;SDS011;9986;50.610;7.230;2022-10-31T15:23:51;8.47;;;4.30;;
19673;SDS011;9986;50.610;7.230;2022-10-31T15:26:31;11.73;;;4.63;;
19673;SDS011;9986;50.610;7.230;2022-10-31T15:29:12;8.37;;;4.23;;
19673;SDS011;9986;50.610;7.230;2022-10-31T15:31:53;6.67;;;3.70;;
19673;SDS011;9986;50.610;7.230;2022-10-31T15:34:32;7.47;;;3.90;;
19673;SDS011;9986;50.610;7.230;2022-10-31T15:39:42;8.73;;;3.87;;
19673;SDS011;9986;50.610;7.230;2022-10-31T15:42:21;6.30;;;3.70;;
19673;SDS011;9986;50.610;7.230;2022-10-31T15:45:16;9.83;;;3.97;;
19673;SDS011;9986;50.610;7.230;2022-10-31T15:47:56;6.80;;;3.60;;
19673;SDS011;9986;50.610;7.230;2022-10-31T15:50:35;6.40;;;4.47;;
19673;SDS011;9986;50.610;7.230;2022-10-31T15:55:59;9.73;;;4.10;;
19673;SDS011;9986;50.610;7.230;2022-10-31T15:58:41;9.60;;;4.67;;
19673;SDS011;9986;50.610;7.230;2022-10-31T16:01:21;7.37;;;3.90;;
19673;SDS011;9986;50.610;7.230;2022-10-31T16:04:01;12.93;;;3.90;;
19673;SDS011;9986;50.610;7.230;2022-10-31T16:06:57;7.97;;;3.90;;
19673;SDS011;9986;50.610;7.230;2022-10-31T16:12:12;8.60;;;3.87;;
19673;SDS011;9986;50.610;7.230;2022-10-31T16:17:40;5.53;;;3.80;;
19673;SDS011;9986;50.610;7.230;2022-10-31T16:20:20;10.47;;;3.93;;
19673;SDS011;9986;50.610;7.230;2022-10-31T16:23:01;5.70;;;3.70;;
19673;SDS011;9986;50.610;7.230;2022-10-31T16:25:40;8.07;;;3.97;;
19673;SDS011;9986;50.610;7.230;2022-10-31T16:30:57;6.23;;;4.03;;
19673;SDS011;9986;50.610;7.230;2022-10-31T16:33:43;8.50;;;3.90;;
19673;SDS011;9986;50.610;7.230;2022-10-31T16:39:06;7.77;;;4.10;;
19673;SDS011;9986;50.610;7.230;2022-10-31T16:49:49;4.20;;;3.60;;
19673;SDS011;9986;50.610;7.230;2022-10-31T16:52:27;11.90;;;4.00;;
19673;SDS011;9986;50.610;7.230;2022-10-31T16:55:06;9.30;;;4.07;;
19673;SDS011;9986;50.610;7.230;2022-10-31T16:57:42;8.50;;;3.50;;
19673;SDS011;9986;50.610;7.230;2022-10-31T17:00:21;7.00;;;3.87;;
19673;SDS011;9986;50.610;7.230;2022-10-31T17:03:00;6.20;;;3.90;;
19673;SDS011;9986;50.610;7.230;2022-10-31T17:08:15;9.10;;;4.43;;
19673;SDS011;9986;50.610;7.230;2022-10-31T17:13:23;7.10;;;4.30;;
19673;SDS011;9986;50.610;7.230;2022-10-31T17:16:02;7.00;;;4.43;;
19673;SDS011;9986;50.610;7.230;2022-10-31T17:18:40;7.13;;;3.60;;
19673;SDS011;9986;50.610;7.230;2022-10-31T17:21:21;6.93;;;4.37;;
19673;SDS011;9986;50.610;7.230;2022-10-31T17:23:59;10.37;;;4.60;;
19673;SDS011;9986;50.610;7.230;2022-10-31T17:29:06;9.33;;;4.10;;
19673;SDS011;9986;50.610;7.230;2022-10-31T17:31:45;9.50;;;4.40;;
19673;SDS011;9986;50.610;7.230;2022-10-31T17:34:29;6.83;;;4.10;;
19673;SDS011;9986;50.610;7.230;2022-10-31T17:37:08;5.03;;;3.90;;
19673;SDS011;9986;50.610;7.230;2022-10-31T17:39:46;7.63;;;4.33;;
19673;SDS011;9986;50.610;7.230;2022-10-31T17:47:30;7.63;;;4.30;;
19673;SDS011;9986;50.610;7.230;2022-10-31T17:50:08;12.70;;;4.73;;
19673;SDS011;9986;50.610;7.230;2022-10-31T17:55:22;7.33;;;4.50;;
19673;SDS011;9986;50.610;7.230;2022-10-31T17:58:00;9.80;;;4.40;;
19673;SDS011;9986;50.610;7.230;2022-10-31T18:00:39;8.50;;;5.13;;
19673;SDS011;9986;50.610;7.230;2022-10-31T18:03:17;9.40;;;4.30;;
19673;SDS011;9986;50.610;7.230;2022-10-31T18:05:57;7.23;;;4.40;;
19673;SDS011;9986;50.610;7.230;2022-10-31T18:08:35;8.03;;;4.90;;
19673;SDS011;9986;50.610;7.230;2022-10-31T18:13:44;8.17;;;4.73;;
19673;SDS011;9986;50.610;7.230;2022-10-31T18:16:22;11.40;;;5.03;;
19673;SDS011;9986;50.610;7.230;2022-10-31T18:21:29;7.27;;;4.60;;
19673;SDS011;9986;50.610;7.230;2022-10-31T18:24:09;12.00;;;5.03;;
19673;SDS011;9986;50.610;7.230;2022-10-31T18:29:25;6.50;;;4.87;;
19673;SDS011;9986;50.610;7.230;2022-10-31T18:32:03;7.93;;;5.43;;
19673;SDS011;9986;50.610;7.230;2022-10-31T18:37:13;12.27;;;5.37;;
19673;SDS011;9986;50.610;7.230;2022-10-31T18:39:53;11.10;;;5.17;;
19673;SDS011;9986;50.610;7.230;2022-10-31T18:45:03;7.80;;;4.63;;
19673;SDS011;9986;50.610;7.230;2022-10-31T18:50:11;10.77;;;6.17;;
19673;SDS011;9986;50.610;7.230;2022-10-31T18:52:51;7.10;;;5.20;;
19673;SDS011;9986;50.610;7.230;2022-10-31T18:55:28;8.87;;;4.80;;
19673;SDS011;9986;50.610;7.230;2022-10-31T18:58:06;7.10;;;4.60;;
19673;SDS011;9986;50.610;7.230;2022-10-31T19:00:44;8.93;;;4.77;;
19673;SDS011;9986;50.610;7.230;2022-10-31T19:03:22;9.50;;;4.90;;
19673;SDS011;9986;50.610;7.230;2022-10-31T19:05:59;8.93;;;5.13;;
19673;SDS011;9986;50.610;7.230;2022-10-31T19:08:38;9.70;;;4.73;;
19673;SDS011;9986;50.610;7.230;2022-10-31T19:11:15;8.13;;;5.50;;
19673;SDS011;9986;50.610;7.230;2022-10-31T19:13:56;7.20;;;5.00;;
19673;SDS011;9986;50.610;7.230;2022-10-31T19:16:34;9.70;;;4.93;;
19673;SDS011;9986;50.610;7.230;2022-10-31T19:19:12;14.13;;;5.47;;
19673;SDS011;9986;50.610;7.230;2022-10-31T19:21:49;11.20;;;5.20;;
19673;SDS011;9986;50.610;7.230;2022-10-31T19:24:30;8.57;;;5.87;;
19673;SDS011;9986;50.610;7.230;2022-10-31T19:27:10;10.27;;;6.77;;
19673;SDS011;9986;50.610;7.230;2022-10-31T19:29:54;12.27;;;6.27;;
19673;SDS011;9986;50.610;7.230;2022-10-31T19:32:32;10.03;;;6.00;;
19673;SDS011;9986;50.610;7.230;2022-10-31T19:37:39;12.07;;;6.57;;
19673;SDS011;9986;50.610;7.230;2022-10-31T19:40:25;10.63;;;6.77;;
19673;SDS011;9986;50.610;7.230;2022-10-31T19:43:03;13.60;;;7.73;;
19673;SDS011;9986;50.610;7.230;2022-10-31T19:45:47;15.33;;;8.53;;
19673;SDS011;9986;50.610;7.230;2022-10-31T19:48:37;11.70;;;8.20;;
19673;SDS011;9986;50.610;7.230;2022-10-31T19:51:16;12.20;;;8.37;;
19673;SDS011;9986;50.610;7.230;2022-10-31T19:56:34;14.63;;;7.63;;
19673;SDS011;9986;50.610;7.230;2022-10-31T19:59:15;16.50;;;7.90;;
19673;SDS011;9986;50.610;7.230;2022-10-31T20:04:22;13.77;;;8.03;;
19673;SDS011;9986;50.610;7.230;2022-10-31T20:09:36;9.87;;;6.90;;
19673;SDS011;9986;50.610;7.230;2022-10-31T20:12:13;14.93;;;6.43;;
19673;SDS011;9986;50.610;7.230;2022-10-31T20:17:27;9.57;;;5.93;;
19673;SDS011;9986;50.610;7.230;2022-10-31T20:20:06;13.70;;;6.57;;
19673;SDS011;9986;50.610;7.230;2022-10-31T20:25:23;13.43;;;6.00;;
19673;SDS011;9986;50.610;7.230;2022-10-31T20:28:01;12.03;;;5.43;;
19673;SDS011;9986;50.610;7.230;2022-10-31T20:33:17;8.97;;;5.23;;
19673;SDS011;9986;50.610;7.230;2022-10-31T20:35:54;8.53;;;5.00;;
19673;SDS011;9986;50.610;7.230;2022-10-31T20:38:36;18.17;;;6.23;;
19673;SDS011;9986;50.610;7.230;2022-10-31T20:43:45;9.27;;;4.67;;
19673;SDS011;9986;50.610;7.230;2022-10-31T20:48:52;13.50;;;5.33;;
19673;SDS011;9986;50.610;7.230;2022-10-31T20:51:30;11.53;;;4.63;;
19673;SDS011;9986;50.610;7.230;2022-10-31T20:54:09;11.33;;;4.77;;
19673;SDS011;9986;50.610;7.230;2022-10-31T20:56:56;7.23;;;4.57;;
19673;SDS011;9986;50.610;7.230;2022-10-31T20:59:34;8.73;;;4.70;;
19673;SDS011;9986;50.610;7.230;2022-10-31T21:02:21;14.57;;;4.70;;
19673;SDS011;9986;50.610;7.230;2022-10-31T21:04:59;11.20;;;4.93;;
19673;SDS011;9986;50.610;7.230;2022-10-31T21:07:37;11.37;;;5.30;;
19673;SDS011;9986;50.610;7.230;2022-10-31T21:10:15;11.10;;;5.23;;
19673;SDS011;9986;50.610;7.230;2022-10-31T21:18:07;14.63;;;5.97;;
19673;SDS011;9986;50.610;7.230;2022-10-31T21:20:46;10.57;;;5.23;;
19673;SDS011;9986;50.610;7.230;2022-10-31T21:23:23;9.67;;;4.87;;
19673;SDS011;9986;50.610;7.230;2022-10-31T21:26:04;10.77;;;4.97;;
19673;SDS011;9986;50.610;7.230;2022-10-31T21:28:46;13.07;;;5.03;;
19673;SDS011;9986;50.610;7.230;2022-10-31T21:31:24;9.50;;;5.17;;
19673;SDS011;9986;50.610;7.230;2022-10-31T21:34:08;7.27;;;5.07;;
19673;SDS011;9986;50.610;7.230;2022-10-31T21:39:24;8.37;;;4.57;;
19673;SDS011;9986;50.610;7.230;2022-10-31T21:42:02;6.93;;;4.70;;
19673;SDS011;9986;50.610;7.230;2022-10-31T21:44:43;8.13;;;4.67;;
19673;SDS011;9986;50.610;7.230;2022-10-31T21:47:23;9.10;;;4.13;;